createdAt,value
2018-07-28T00:00:47.338Z,99.90
2018-07-28T00:03:16.263Z,99.90
2018-07-28T00:05:44.417Z,99.90
2018-07-28T00:10:40.535Z,99.90
2018-07-28T00:13:08.507Z,99.90
2018-07-28T00:15:36.603Z,99.90
2018-07-28T00:20:32.230Z,99.90
2018-07-28T00:23:00.339Z,99.90
2018-07-28T00:25:32.954Z,99.90
2018-07-28T00:28:01.323Z,99.90
2018-07-28T00:30:29.135Z,99.90
2018-07-28T00:32:57.097Z,99.90
2018-07-28T00:35:25.033Z,99.90
2018-07-28T00:37:52.827Z,99.90
2018-07-28T00:40:20.814Z,99.90
2018-07-28T00:42:48.739Z,99.90
2018-07-28T00:45:16.692Z,99.90
2018-07-28T00:47:44.526Z,99.90
2018-07-28T00:50:12.519Z,99.90
2018-07-28T00:52:40.718Z,99.90
2018-07-28T00:57:36.922Z,99.90
2018-07-28T01:00:06.381Z,99.90
2018-07-28T01:02:34.319Z,99.90
2018-07-28T01:05:03.192Z,99.90
2018-07-28T01:07:31.447Z,99.90
2018-07-28T01:09:59.613Z,99.90
2018-07-28T01:12:27.475Z,99.90
2018-07-28T01:14:55.523Z,99.90
2018-07-28T01:17:23.805Z,99.90
2018-07-28T01:19:51.724Z,99.90
2018-07-28T01:22:19.899Z,99.90
2018-07-28T01:24:48.417Z,99.90
2018-07-28T01:29:44.425Z,99.90
2018-07-28T01:32:12.340Z,99.90
2018-07-28T01:34:40.903Z,99.90
2018-07-28T01:37:09.150Z,99.90
2018-07-28T01:39:37.081Z,99.90
2018-07-28T01:42:05.088Z,99.90
2018-07-28T01:44:32.906Z,99.90
2018-07-28T01:47:00.991Z,99.90
2018-07-28T01:49:29.229Z,99.90
2018-07-28T01:51:57.262Z,99.90
2018-07-28T01:54:25.837Z,99.90
2018-07-28T01:56:53.966Z,99.90
2018-07-28T01:59:21.997Z,99.90
2018-07-28T02:01:50.266Z,99.90
2018-07-28T02:04:18.223Z,99.90
2018-07-28T02:06:46.665Z,99.90
2018-07-28T02:09:14.973Z,99.90
2018-07-28T02:11:42.948Z,99.90
2018-07-28T02:14:11.129Z,99.90
2018-07-28T02:16:39.967Z,99.90
2018-07-28T02:19:07.633Z,99.90
2018-07-28T02:21:36.190Z,99.90
2018-07-28T02:24:04.172Z,99.90
2018-07-28T02:26:32.224Z,99.90
2018-07-28T02:29:00.164Z,99.90
2018-07-28T02:31:28.178Z,99.90
2018-07-28T02:33:56.182Z,99.90
2018-07-28T02:36:24.121Z,99.90
2018-07-28T02:38:52.123Z,99.90
2018-07-28T02:41:20.320Z,99.90
2018-07-28T02:43:48.368Z,99.90
2018-07-28T02:46:16.427Z,99.90
2018-07-28T02:48:44.516Z,99.90
2018-07-28T02:51:12.659Z,99.90
2018-07-28T02:53:44.475Z,99.90
2018-07-28T02:56:13.561Z,99.90
2018-07-28T02:58:41.575Z,99.90
2018-07-28T03:01:10.330Z,99.90
2018-07-28T03:03:38.681Z,99.90
2018-07-28T03:06:06.504Z,99.90
2018-07-28T03:08:34.832Z,99.90
2018-07-28T03:11:03.281Z,99.90
2018-07-28T03:13:31.405Z,99.90
2018-07-28T03:15:59.749Z,99.90
2018-07-28T03:18:27.472Z,99.90
2018-07-28T03:20:55.576Z,99.90
2018-07-28T03:23:23.594Z,99.90
2018-07-28T03:30:47.096Z,99.90
2018-07-28T03:33:15.316Z,99.90
2018-07-28T03:35:43.287Z,99.90
2018-07-28T03:38:11.207Z,99.90
2018-07-28T03:40:39.258Z,99.90
2018-07-28T03:45:35.035Z,99.90
2018-07-28T03:48:03.031Z,99.90
2018-07-28T03:50:30.815Z,99.90
2018-07-28T03:52:58.912Z,99.90
2018-07-28T03:55:26.965Z,99.90
2018-07-28T03:57:54.780Z,99.90
2018-07-28T04:00:23.008Z,99.90
2018-07-28T04:05:18.572Z,99.90
2018-07-28T04:07:46.401Z,99.90
2018-07-28T04:12:42.232Z,99.90
2018-07-28T04:15:12.039Z,99.90
2018-07-28T04:17:52.443Z,99.90
2018-07-28T04:20:21.038Z,99.90
2018-07-28T04:22:49.042Z,99.90
2018-07-28T04:25:16.932Z,99.90
2018-07-28T04:27:45.317Z,99.90
2018-07-28T04:30:13.497Z,99.90
2018-07-28T04:32:42.378Z,99.90
2018-07-28T04:35:10.708Z,99.90
2018-07-28T04:37:40.045Z,99.90
2018-07-28T04:42:38.102Z,99.90
2018-07-28T04:45:07.020Z,99.90
2018-07-28T04:50:03.496Z,99.90
2018-07-28T04:52:32.027Z,99.90
2018-07-28T04:55:01.245Z,99.90
2018-07-28T05:02:26.464Z,99.90
2018-07-28T05:04:55.577Z,99.90
2018-07-28T05:07:24.172Z,99.90
2018-07-28T05:09:52.593Z,99.90
2018-07-28T05:12:20.870Z,99.90
2018-07-28T05:14:49.566Z,99.90
2018-07-28T05:17:17.731Z,99.90
2018-07-28T05:19:46.030Z,99.90
2018-07-28T05:22:14.610Z,99.90
2018-07-28T05:24:42.868Z,99.90
2018-07-28T05:27:11.408Z,99.90
2018-07-28T05:29:39.407Z,99.90
2018-07-28T05:32:07.501Z,99.90
2018-07-28T05:34:36.488Z,99.90
2018-07-28T05:37:04.839Z,99.90
2018-07-28T05:39:32.747Z,99.90
2018-07-28T05:42:00.629Z,99.90
2018-07-28T05:44:28.453Z,99.90
2018-07-28T05:46:56.420Z,99.90
2018-07-28T05:49:24.636Z,99.90
2018-07-28T05:51:52.567Z,99.90
2018-07-28T05:54:20.781Z,99.90
2018-07-28T05:56:48.772Z,99.90
2018-07-28T05:59:16.934Z,99.90
2018-07-28T06:01:44.926Z,99.90
2018-07-28T06:04:13.241Z,99.90
2018-07-28T06:06:41.077Z,99.90
2018-07-28T06:09:09.973Z,99.90
2018-07-28T06:11:38.499Z,99.90
2018-07-28T06:14:06.584Z,99.90
2018-07-28T06:16:35.868Z,99.90
2018-07-28T06:19:04.114Z,99.90
2018-07-28T06:21:32.279Z,99.90
2018-07-28T06:24:00.211Z,99.90
2018-07-28T06:26:28.124Z,99.70
2018-07-28T06:28:56.034Z,97.90
2018-07-28T06:31:24.289Z,96.10
2018-07-28T06:36:20.652Z,93.30
2018-07-28T06:41:16.560Z,91.70
2018-07-28T06:43:44.787Z,90.50
2018-07-28T06:46:12.805Z,89.80
2018-07-28T06:48:41.272Z,88.60
2018-07-28T06:51:09.818Z,86.80
2018-07-28T06:53:38.645Z,84.40
2018-07-28T06:56:07.242Z,84.90
2018-07-28T06:58:35.541Z,82.40
2018-07-28T07:01:03.784Z,81.80
2018-07-28T07:03:32.723Z,81.10
2018-07-28T07:06:00.733Z,79.90
2018-07-28T07:08:29.158Z,79.00
2018-07-28T07:10:57.190Z,81.30
2018-07-28T07:13:25.348Z,79.20
2018-07-28T07:15:55.854Z,82.40
2018-07-28T07:18:24.020Z,85.10
2018-07-28T07:20:51.958Z,85.90
2018-07-28T07:23:20.360Z,87.20
2018-07-28T07:25:48.432Z,85.80
2018-07-28T07:28:16.458Z,86.70
2018-07-28T07:30:44.530Z,84.90
2018-07-28T07:33:12.677Z,84.80
2018-07-28T07:35:40.620Z,84.10
2018-07-28T07:38:08.576Z,83.60
2018-07-28T07:40:36.649Z,79.60
2018-07-28T07:43:05.462Z,74.60
2018-07-28T07:45:33.401Z,73.10
2018-07-28T07:48:01.512Z,73.80
2018-07-28T07:50:29.589Z,75.50
2018-07-28T07:52:57.896Z,70.70
2018-07-28T07:55:26.256Z,64.00
2018-07-28T07:57:54.514Z,66.10
2018-07-28T08:00:22.439Z,64.90
2018-07-28T08:02:50.440Z,64.50
2018-07-28T08:05:18.353Z,62.90
2018-07-28T08:07:46.598Z,63.20
2018-07-28T08:10:14.785Z,62.60
2018-07-28T08:12:42.888Z,61.50
2018-07-28T08:15:11.094Z,61.40
2018-07-28T08:17:40.008Z,61.20
2018-07-28T08:20:08.495Z,59.90
2018-07-28T08:22:36.665Z,60.10
2018-07-28T08:25:05.385Z,60.80
2018-07-28T08:27:33.368Z,60.10
2018-07-28T08:30:01.244Z,60.50
2018-07-28T08:32:29.303Z,61.30
2018-07-28T08:34:57.426Z,59.60
2018-07-28T08:37:25.713Z,58.70
2018-07-28T08:39:54.247Z,57.70
2018-07-28T08:42:22.358Z,57.50
2018-07-28T08:44:51.055Z,57.60
2018-07-28T08:47:19.100Z,55.90
2018-07-28T08:49:47.003Z,57.00
2018-07-28T08:52:15.222Z,58.40
2018-07-28T08:54:44.327Z,55.90
2018-07-28T08:57:12.745Z,56.30
2018-07-28T09:02:08.863Z,55.70
2018-07-28T09:04:36.874Z,55.50
2018-07-28T09:07:04.980Z,55.70
2018-07-28T09:09:33.001Z,55.40
2018-07-28T09:12:01.010Z,55.30
2018-07-28T09:14:29.195Z,55.60
2018-07-28T09:16:57.637Z,54.30
2018-07-28T09:19:25.861Z,53.50
2018-07-28T09:21:54.147Z,53.60
2018-07-28T09:24:22.439Z,52.20
2018-07-28T09:26:50.172Z,52.10
2018-07-28T09:29:18.114Z,53.50
2018-07-28T09:31:46.316Z,53.80
2018-07-28T09:34:14.573Z,54.00
2018-07-28T09:36:42.760Z,54.10
2018-07-28T09:39:11.968Z,53.70
2018-07-28T09:41:40.251Z,53.70
2018-07-28T09:44:08.340Z,54.50
2018-07-28T09:46:37.214Z,54.20
2018-07-28T09:49:05.696Z,54.20
2018-07-28T09:51:34.857Z,54.90
2018-07-28T09:54:03.066Z,54.20
2018-07-28T09:56:31.000Z,54.00
2018-07-28T09:58:58.957Z,53.30
2018-07-28T10:01:26.865Z,54.50
2018-07-28T10:03:55.496Z,53.40
2018-07-28T10:06:24.685Z,53.00
2018-07-28T10:08:52.682Z,51.70
2018-07-28T10:11:20.888Z,51.60
2018-07-28T10:13:48.969Z,51.30
2018-07-28T10:16:17.215Z,51.20
2018-07-28T10:18:45.188Z,51.90
2018-07-28T10:21:13.412Z,51.50
2018-07-28T10:23:41.766Z,53.20
2018-07-28T10:26:10.204Z,51.00
2018-07-28T10:28:38.138Z,52.00
2018-07-28T10:31:06.303Z,52.00
2018-07-28T10:33:34.976Z,52.70
2018-07-28T10:36:02.917Z,52.80
2018-07-28T10:38:30.964Z,52.60
2018-07-28T10:40:58.986Z,52.20
2018-07-28T10:43:27.047Z,51.90
2018-07-28T10:45:55.251Z,53.30
2018-07-28T10:48:23.100Z,52.70
2018-07-28T10:50:51.070Z,52.90
2018-07-28T10:53:19.279Z,53.70
2018-07-28T10:55:47.181Z,54.40
2018-07-28T10:58:15.409Z,53.40
2018-07-28T11:00:43.347Z,53.30
2018-07-28T11:03:11.335Z,53.00
2018-07-28T11:05:39.700Z,52.00
2018-07-28T11:08:07.996Z,51.40
2018-07-28T11:10:36.501Z,51.60
2018-07-28T11:13:04.872Z,50.70
2018-07-28T11:15:33.816Z,50.60
2018-07-28T11:18:02.555Z,50.70
2018-07-28T11:20:31.141Z,49.80
2018-07-28T11:22:59.548Z,49.40
2018-07-28T11:25:27.885Z,48.80
2018-07-28T11:30:24.462Z,47.20
2018-07-28T11:33:03.684Z,48.20
2018-07-28T11:36:40.702Z,49.10
2018-07-28T11:39:20.030Z,48.00
2018-07-28T11:41:59.123Z,48.60
2018-07-28T11:44:38.224Z,49.60
2018-07-28T11:47:06.641Z,48.80
2018-07-28T11:49:34.573Z,49.40
2018-07-28T11:52:02.597Z,49.90
2018-07-28T11:54:30.858Z,50.20
2018-07-28T11:56:58.936Z,51.10
2018-07-28T11:59:26.920Z,52.00
2018-07-28T12:01:55.819Z,52.60
2018-07-28T12:04:24.664Z,52.00
2018-07-28T12:06:53.190Z,52.40
2018-07-28T12:09:21.474Z,52.20
2018-07-28T12:11:49.396Z,52.40
2018-07-28T12:14:17.631Z,52.90
2018-07-28T12:16:46.001Z,53.70
2018-07-28T12:19:14.237Z,53.50
2018-07-28T12:21:42.974Z,53.00
2018-07-28T12:24:11.004Z,52.50
2018-07-28T12:26:39.304Z,53.80
2018-07-28T12:29:08.513Z,53.70
2018-07-28T12:31:37.146Z,52.80
2018-07-28T12:34:05.522Z,52.80
2018-07-28T12:36:34.323Z,53.80
2018-07-28T12:39:02.573Z,54.20
2018-07-28T12:41:31.153Z,53.30
2018-07-28T12:46:27.664Z,51.30
2018-07-28T12:48:55.581Z,52.20
2018-07-28T12:51:23.873Z,52.30
2018-07-28T12:53:52.195Z,52.00
2018-07-28T12:56:20.356Z,51.60
2018-07-28T12:58:48.847Z,52.10
2018-07-28T13:01:17.291Z,52.50
2018-07-28T13:03:45.414Z,52.40
2018-07-28T13:08:41.855Z,52.90
2018-07-28T13:11:09.563Z,53.40
2018-07-28T13:13:37.705Z,53.30
2018-07-28T13:16:06.842Z,53.40
2018-07-28T13:18:35.015Z,53.40
2018-07-28T13:21:03.086Z,53.50
2018-07-28T13:23:31.695Z,53.90
2018-07-28T13:26:00.288Z,53.40
2018-07-28T13:28:28.340Z,53.50
2018-07-28T13:30:56.530Z,54.00
2018-07-28T13:33:24.619Z,53.80
2018-07-28T13:35:52.706Z,54.80
2018-07-28T13:38:21.123Z,55.20
2018-07-28T13:40:49.026Z,54.70
2018-07-28T13:43:17.078Z,54.50
2018-07-28T13:45:45.117Z,55.80
2018-07-28T13:48:12.981Z,57.00
2018-07-28T13:50:41.462Z,58.10
2018-07-28T13:53:09.781Z,56.30
2018-07-28T13:55:38.247Z,56.10
2018-07-28T13:58:07.006Z,54.80
2018-07-28T14:00:35.439Z,55.40
2018-07-28T14:03:04.163Z,56.40
2018-07-28T14:05:32.493Z,59.10
2018-07-28T14:08:00.552Z,62.40
2018-07-28T14:10:28.816Z,64.50
2018-07-28T14:12:56.917Z,65.80
2018-07-28T14:15:25.609Z,65.70
2018-07-28T14:17:54.573Z,66.00
2018-07-28T14:20:22.735Z,67.80
2018-07-28T14:22:51.226Z,68.70
2018-07-28T14:25:20.352Z,70.00
2018-07-28T14:27:48.708Z,69.50
2018-07-28T14:30:16.855Z,66.20
2018-07-28T14:32:45.044Z,65.90
2018-07-28T14:35:13.671Z,64.20
2018-07-28T14:37:42.055Z,65.00
2018-07-28T14:40:10.588Z,65.30
2018-07-28T14:42:39.340Z,66.60
2018-07-28T14:45:10.301Z,66.40
2018-07-28T14:47:38.694Z,64.00
2018-07-28T14:50:07.775Z,63.80
2018-07-28T14:52:36.075Z,64.20
2018-07-28T14:55:04.997Z,64.50
2018-07-28T14:57:33.325Z,65.50
2018-07-28T15:00:02.059Z,65.20
2018-07-28T15:02:30.386Z,66.20
2018-07-28T15:04:59.237Z,66.70
2018-07-28T15:07:27.341Z,69.60
2018-07-28T15:12:23.549Z,68.00
2018-07-28T15:14:51.936Z,67.30
2018-07-28T15:17:20.623Z,68.20
2018-07-28T15:19:48.944Z,68.30
2018-07-28T15:22:17.294Z,67.30
2018-07-28T15:24:46.884Z,67.90
2018-07-28T15:27:15.302Z,66.30
2018-07-28T15:29:43.928Z,65.30
2018-07-28T15:32:12.038Z,64.30
2018-07-28T15:34:40.212Z,62.10
2018-07-28T15:37:08.560Z,59.90
2018-07-28T15:39:36.733Z,59.40
2018-07-28T15:42:05.745Z,58.90
2018-07-28T15:44:34.428Z,55.10
2018-07-28T15:47:03.103Z,53.80
2018-07-28T15:49:31.650Z,53.30
2018-07-28T15:51:59.777Z,54.00
2018-07-28T15:54:28.115Z,54.00
2018-07-28T15:56:56.132Z,54.30
2018-07-28T15:59:25.299Z,54.90
2018-07-28T16:01:53.564Z,55.10
2018-07-28T16:04:22.049Z,56.10
2018-07-28T16:06:50.258Z,56.10
2018-07-28T16:09:18.363Z,57.70
2018-07-28T16:11:47.045Z,56.60
2018-07-28T16:14:15.147Z,56.10
2018-07-28T16:16:44.124Z,56.80
2018-07-28T16:19:12.467Z,56.90
2018-07-28T16:21:40.883Z,57.40
2018-07-28T16:24:09.197Z,57.50
2018-07-28T16:26:38.330Z,57.60
2018-07-28T16:29:06.529Z,58.20
2018-07-28T16:31:35.611Z,59.10
2018-07-28T16:34:03.802Z,59.70
2018-07-28T16:36:32.015Z,59.50
2018-07-28T16:39:00.076Z,61.60
2018-07-28T16:41:28.434Z,62.40
2018-07-28T16:43:57.003Z,63.30
2018-07-28T16:46:25.475Z,63.30
2018-07-28T16:48:53.963Z,63.90
2018-07-28T16:51:22.245Z,64.70
2018-07-28T16:53:51.034Z,66.10
2018-07-28T16:56:19.855Z,66.10
2018-07-28T16:58:47.944Z,66.90
2018-07-28T17:01:16.345Z,67.00
2018-07-28T17:03:44.277Z,66.90
2018-07-28T17:06:12.926Z,67.50
2018-07-28T17:08:40.971Z,67.00
2018-07-28T17:11:09.365Z,68.70
2018-07-28T17:13:37.655Z,69.60
2018-07-28T17:16:08.078Z,70.20
2018-07-28T17:18:36.330Z,70.90
2018-07-28T17:21:04.705Z,72.00
2018-07-28T17:23:34.028Z,72.60
2018-07-28T17:26:02.487Z,74.00
2018-07-28T17:28:31.047Z,72.50
2018-07-28T17:31:00.485Z,74.20
2018-07-28T17:33:29.061Z,75.30
2018-07-28T17:35:57.575Z,76.60
2018-07-28T17:38:25.661Z,79.00
2018-07-28T17:40:54.038Z,81.60
2018-07-28T17:43:22.199Z,83.50
2018-07-28T17:45:50.998Z,84.80
2018-07-28T17:48:19.433Z,87.20
2018-07-28T17:50:47.795Z,88.80
2018-07-28T17:53:16.684Z,90.80
2018-07-28T17:55:45.229Z,92.60
2018-07-28T17:58:13.379Z,94.50
2018-07-28T18:00:42.357Z,96.70
2018-07-28T18:03:11.631Z,98.70
2018-07-28T18:05:41.099Z,99.90
2018-07-28T18:08:09.368Z,99.90
2018-07-28T18:10:38.318Z,99.90
2018-07-28T18:13:06.995Z,99.90
2018-07-28T18:15:36.350Z,99.90
2018-07-28T18:18:05.345Z,99.90
2018-07-28T18:20:34.293Z,99.90
2018-07-28T18:23:02.748Z,99.90
2018-07-28T18:25:31.479Z,99.90
2018-07-28T18:27:59.821Z,99.90
2018-07-28T18:30:28.493Z,99.90
2018-07-28T18:32:56.916Z,99.90
2018-07-28T18:35:26.909Z,99.90
2018-07-28T18:37:55.725Z,99.90
2018-07-28T18:40:23.937Z,99.90
2018-07-28T18:42:52.201Z,99.90
2018-07-28T18:45:20.423Z,99.90
2018-07-28T18:47:48.277Z,99.90
2018-07-28T18:50:16.561Z,99.90
2018-07-28T18:52:44.829Z,99.90
2018-07-28T18:55:13.970Z,99.90
2018-07-28T18:57:42.722Z,99.90
2018-07-28T19:00:11.061Z,99.90
2018-07-28T19:02:41.307Z,99.90
2018-07-28T19:05:11.008Z,99.90
2018-07-28T19:07:40.964Z,99.90
2018-07-28T19:10:09.527Z,99.90
2018-07-28T19:12:43.214Z,99.90
2018-07-28T19:15:11.799Z,99.90
2018-07-28T19:17:46.042Z,99.90
2018-07-28T19:22:50.084Z,99.90
2018-07-28T19:25:22.566Z,99.90
2018-07-28T19:27:56.533Z,99.90
2018-07-28T19:30:25.283Z,99.90
2018-07-28T19:32:54.255Z,99.90
2018-07-28T19:35:27.325Z,99.90
2018-07-28T19:37:55.693Z,99.90
2018-07-28T19:40:24.037Z,99.90
2018-07-28T19:42:55.195Z,99.90
2018-07-28T19:45:25.667Z,99.90
2018-07-28T19:47:55.017Z,99.90
2018-07-28T19:50:23.116Z,99.90
2018-07-28T19:52:51.986Z,99.90
2018-07-28T19:55:21.240Z,99.90
2018-07-28T19:57:49.926Z,99.90
2018-07-28T20:00:18.243Z,99.90
2018-07-28T20:02:46.999Z,99.90
2018-07-28T20:05:16.637Z,99.90
2018-07-28T20:07:45.627Z,99.90
2018-07-28T20:10:13.826Z,99.90
2018-07-28T20:12:42.062Z,99.90
2018-07-28T20:15:10.579Z,99.90
2018-07-28T20:17:39.147Z,99.90
2018-07-28T20:20:08.593Z,99.90
2018-07-28T20:22:36.620Z,99.90
2018-07-28T20:25:05.812Z,99.90
2018-07-28T20:27:34.191Z,99.90
2018-07-28T20:30:02.920Z,99.90
2018-07-28T20:32:32.098Z,99.90
2018-07-28T20:35:00.370Z,99.90
2018-07-28T20:37:29.000Z,99.90
2018-07-28T20:39:57.845Z,99.90
2018-07-28T20:42:26.097Z,99.90
2018-07-28T20:44:55.054Z,99.90
2018-07-28T20:47:23.423Z,99.90
2018-07-28T20:49:51.862Z,99.90
2018-07-28T20:52:23.695Z,99.90
2018-07-28T20:54:52.892Z,99.90
2018-07-28T20:57:21.240Z,99.90
2018-07-28T20:59:49.626Z,99.90
2018-07-28T21:02:17.994Z,99.90
2018-07-28T21:04:46.864Z,99.90
2018-07-28T21:07:15.559Z,99.90
2018-07-28T21:09:44.269Z,99.90
2018-07-28T21:12:12.196Z,99.90
2018-07-28T21:14:40.671Z,99.90
2018-07-28T21:17:09.630Z,99.90
2018-07-28T21:19:37.651Z,99.90
2018-07-28T21:22:05.849Z,99.90
2018-07-28T21:24:33.908Z,99.90
2018-07-28T21:27:02.923Z,99.90
2018-07-28T21:29:32.087Z,99.90
2018-07-28T21:32:00.968Z,99.90
2018-07-28T21:34:29.361Z,99.90
2018-07-28T21:36:58.439Z,99.90
2018-07-28T21:39:27.501Z,99.90
2018-07-28T21:41:55.570Z,99.90
2018-07-28T21:44:25.184Z,99.90
2018-07-28T21:46:53.654Z,99.90
2018-07-28T21:49:22.696Z,99.90
2018-07-28T21:51:51.073Z,99.90
2018-07-28T21:54:19.016Z,99.90
2018-07-28T21:56:47.473Z,99.90
2018-07-28T21:59:16.009Z,99.90
2018-07-28T22:01:44.480Z,99.90
2018-07-28T22:04:18.584Z,99.90
2018-07-28T22:06:46.926Z,99.90
2018-07-28T22:09:14.959Z,99.90
2018-07-28T22:11:43.427Z,99.90
2018-07-28T22:14:11.087Z,99.90
2018-07-28T22:16:39.212Z,99.90
2018-07-28T22:19:07.553Z,99.90
2018-07-28T22:21:36.419Z,99.90
2018-07-28T22:24:04.391Z,99.90
2018-07-28T22:26:32.723Z,99.90
2018-07-28T22:29:00.849Z,99.90
2018-07-28T22:31:29.407Z,99.90
2018-07-28T22:36:25.317Z,99.90
2018-07-28T22:38:54.142Z,99.90
2018-07-28T22:41:22.146Z,99.90
2018-07-28T22:43:49.986Z,99.90
2018-07-28T22:46:18.449Z,99.90
2018-07-28T22:48:46.977Z,99.90
2018-07-28T22:51:15.034Z,99.90
2018-07-28T22:53:43.198Z,99.90
2018-07-28T22:56:11.386Z,99.90
2018-07-28T22:58:39.546Z,99.90
2018-07-28T23:01:07.774Z,99.90
2018-07-28T23:03:36.039Z,99.90
2018-07-28T23:06:04.143Z,99.90
2018-07-28T23:08:32.432Z,99.90
2018-07-28T23:11:00.931Z,99.90
2018-07-28T23:13:28.985Z,99.90
2018-07-28T23:15:57.174Z,99.90
2018-07-28T23:18:25.404Z,99.90
2018-07-28T23:23:21.377Z,99.90
2018-07-28T23:25:49.465Z,99.90
2018-07-28T23:28:17.623Z,99.90
2018-07-28T23:30:45.681Z,99.90
2018-07-28T23:33:13.627Z,99.90
2018-07-28T23:35:41.835Z,99.90
2018-07-28T23:38:10.222Z,99.90
2018-07-28T23:40:38.430Z,99.90
2018-07-28T23:43:06.602Z,99.90
2018-07-28T23:45:34.784Z,99.90
2018-07-28T23:48:02.608Z,99.90
2018-07-28T23:50:30.501Z,99.90
2018-07-28T23:52:58.569Z,99.90
2018-07-28T23:55:26.605Z,99.90
2018-07-28T23:57:54.396Z,99.90
